Time;durP1;ratioP1;P1;durP2;ratioP2;P2;SDS_P1;SDS_P2;PMS_P1;PMS_P2;Temp;Humidity;BMP_temperature;BMP_pressure;BME280_temperature;BME280_humidity;BME280_pressure;Samples;Min_cycle;Max_cycle;Signal;HPM_P1;HPM_P2
2023/04/01 00:00:23;;;;;;;7.57;1.73;;;8.80;99.90;;;;;;4694100;28;10001036;-67
2023/04/01 00:02:49;;;;;;;13.18;2.25;;;8.80;99.90;;;;;;5017659;28;20234;-67
2023/04/01 00:05:21;;;;;;;7.20;1.85;;;8.80;99.90;;;;;;5019441;28;20080;-67
2023/04/01 00:07:59;;;;;;;9.00;1.95;;;8.80;99.90;;;;;;5021922;28;20038;-67
2023/04/01 00:10:30;;;;;;;8.63;2.25;;;8.80;99.90;;;;;;5024750;28;20037;-67
2023/04/01 00:13:00;;;;;;;7.25;1.90;;;8.70;99.90;;;;;;5023204;28;20025;-68
2023/04/01 00:15:31;;;;;;;7.68;2.20;;;8.70;99.90;;;;;;5026662;28;20041;-68
2023/04/01 00:18:08;;;;;;;5.53;2.00;;;8.70;99.90;;;;;;5026422;28;20643;-67
2023/04/01 00:20:44;;;;;;;6.80;2.08;;;8.70;99.90;;;;;;5025248;28;20116;-68
2023/04/01 00:23:18;;;;;;;12.18;2.63;;;8.70;99.90;;;;;;5025214;28;20088;-67
2023/04/01 00:25:45;;;;;;;10.02;1.95;;;8.70;99.90;;;;;;5019877;28;20088;-68
2023/04/01 00:28:21;;;;;;;10.02;2.22;;;8.70;99.90;;;;;;5023977;28;20041;-68
2023/04/01 00:30:49;;;;;;;5.63;1.80;;;8.60;99.90;;;;;;5024306;28;20044;-67
2023/04/01 00:33:26;;;;;;;8.88;2.55;;;8.60;99.90;;;;;;5028766;28;20088;-68
2023/04/01 00:35:52;;;;;;;7.90;2.45;;;8.60;99.90;;;;;;5027504;28;20389;-68
2023/04/01 00:38:25;;;;;;;8.30;2.15;;;8.60;99.90;;;;;;5027910;28;20091;-67
2023/04/01 00:40:58;;;;;;;10.52;2.30;;;8.60;99.90;;;;;;5027388;28;20088;-68
2023/04/01 00:43:34;;;;;;;7.90;2.38;;;8.60;99.90;;;;;;5025734;28;20589;-67
2023/04/01 00:46:06;;;;;;;8.15;2.03;;;8.60;99.90;;;;;;5028659;28;20060;-67
2023/04/01 00:48:41;;;;;;;6.35;1.95;;;8.60;99.90;;;;;;5026873;28;20045;-68
2023/04/01 00:51:19;;;;;;;8.10;2.28;;;8.60;99.90;;;;;;5022004;28;20498;-68
2023/04/01 00:53:56;;;;;;;9.88;2.60;;;8.60;99.90;;;;;;5022414;28;20040;-68
2023/04/01 00:56:30;;;;;;;10.65;2.53;;;8.60;99.90;;;;;;5025189;28;20049;-67
2023/04/01 00:59:04;;;;;;;8.88;2.28;;;8.60;99.90;;;;;;5029401;28;20497;-68
2023/04/01 01:01:37;;;;;;;7.68;2.40;;;8.60;99.90;;;;;;5027104;28;20025;-68
2023/04/01 01:04:28;;;;;;;11.18;2.53;;;8.60;99.90;;;;;;5019281;28;20037;-68
2023/04/01 01:07:05;;;;;;;10.70;3.13;;;8.50;99.90;;;;;;5019460;28;20320;-68
2023/04/01 01:09:58;;;;;;;9.77;2.70;;;8.50;99.90;;;;;;5026344;28;20083;-68
2023/04/01 01:12:47;;;;;;;6.43;2.73;;;8.50;99.90;;;;;;5018333;28;20029;-67
2023/04/01 01:15:26;;;;;;;11.45;2.47;;;8.50;99.90;;;;;;5026732;28;20045;-67
2023/04/01 01:18:11;;;;;;;12.57;2.75;;;8.50;99.90;;;;;;5026557;28;20029;-68
2023/04/01 01:20:49;;;;;;;11.80;2.72;;;8.50;99.90;;;;;;5028776;28;20037;-68
2023/04/01 01:24:03;;;;;;;7.82;2.65;;;8.50;99.90;;;;;;5025799;28;20513;-67
2023/04/01 01:26:34;;;;;;;9.13;2.25;;;8.50;99.90;;;;;;5018939;28;20116;-67
2023/04/01 01:29:15;;;;;;;11.27;2.80;;;8.50;99.90;;;;;;5028911;28;20512;-68
2023/04/01 01:32:09;;;;;;;10.02;2.67;;;8.50;99.90;;;;;;5016362;28;20183;-68
2023/04/01 01:35:13;;;;;;;9.10;2.70;;;8.50;99.90;;;;;;5018081;28;20060;-67
2023/04/01 01:37:44;;;;;;;11.77;2.83;;;8.50;99.90;;;;;;5024843;28;20163;-68
2023/04/01 01:40:20;;;;;;;11.15;3.00;;;8.50;99.90;;;;;;5023626;28;20100;-68
2023/04/01 01:42:59;;;;;;;8.57;2.88;;;8.40;99.90;;;;;;5026076;28;20026;-68
2023/04/01 01:45:35;;;;;;;6.28;2.95;;;8.50;99.90;;;;;;5024869;28;20025;-68
2023/04/01 01:48:11;;;;;;;10.13;2.85;;;8.50;99.90;;;;;;5028176;28;20030;-68
2023/04/01 01:50:39;;;;;;;11.98;3.35;;;8.50;99.90;;;;;;5026813;28;20379;-67
2023/04/01 01:53:15;;;;;;;9.85;3.22;;;8.40;99.90;;;;;;5026081;28;20132;-68
2023/04/01 01:55:48;;;;;;;8.45;3.08;;;8.40;99.90;;;;;;5024836;28;20520;-67
2023/04/01 01:58:24;;;;;;;13.23;3.22;;;8.40;99.90;;;;;;5024768;28;20040;-67
2023/04/01 02:01:02;;;;;;;13.48;3.63;;;8.40;99.90;;;;;;5019440;28;20028;-67
2023/04/01 02:03:35;;;;;;;12.50;3.03;;;8.40;99.90;;;;;;5027873;28;20044;-67
2023/04/01 02:06:08;;;;;;;12.90;3.38;;;8.40;99.90;;;;;;5022593;28;20029;-67
2023/04/01 02:08:58;;;;;;;;;;;8.40;99.90;;;;;;5022145;28;20037;-68
2023/04/01 02:11:35;;;;;;;11.00;2.90;;;8.40;99.90;;;;;;5022043;28;19912;-68
2023/04/01 02:14:22;;;;;;;11.55;3.17;;;8.40;99.90;;;;;;5024462;28;20124;-68
2023/04/01 02:16:55;;;;;;;12.48;3.10;;;8.40;99.90;;;;;;5021916;28;20040;-68
2023/04/01 02:19:26;;;;;;;12.57;2.35;;;8.40;99.90;;;;;;5015390;28;20389;-68
2023/04/01 02:21:58;;;;;;;13.07;3.10;;;8.30;99.90;;;;;;5025278;28;20578;-68
2023/04/01 02:24:26;;;;;;;10.35;3.10;;;8.30;99.90;;;;;;5014909;28;20397;-68
2023/04/01 02:26:57;;;;;;;10.30;2.78;;;8.30;99.90;;;;;;5019264;28;20040;-67
2023/04/01 02:29:27;;;;;;;14.80;2.85;;;8.30;99.90;;;;;;5028498;28;20040;-67
2023/04/01 02:32:01;;;;;;;13.55;2.80;;;8.30;99.90;;;;;;5023223;28;20380;-67
2023/04/01 02:34:38;;;;;;;7.15;2.40;;;8.30;99.90;;;;;;5016808;28;20132;-67
2023/04/01 02:37:04;;;;;;;6.93;2.30;;;8.30;99.90;;;;;;5014287;28;20038;-67
2023/04/01 02:39:36;;;;;;;9.95;2.75;;;8.40;99.90;;;;;;5028323;28;20032;-67
2023/04/01 02:42:13;;;;;;;8.93;2.60;;;8.30;99.90;;;;;;5029701;28;20030;-67
2023/04/01 02:44:44;;;;;;;11.77;2.50;;;8.30;99.90;;;;;;5021126;28;20120;-67
2023/04/01 02:47:10;;;;;;;10.13;2.53;;;8.30;99.90;;;;;;5024151;28;20041;-67
2023/04/01 02:49:44;;;;;;;12.35;2.28;;;8.30;99.90;;;;;;5027795;28;20552;-67
2023/04/01 02:52:13;;;;;;;13.40;2.30;;;8.30;99.90;;;;;;5011223;28;20026;-68
2023/04/01 02:54:47;;;;;;;12.00;2.45;;;8.30;99.90;;;;;;5022106;28;20018;-68
2023/04/01 03:41:40;;;;;;;7.75;2.10;;;8.30;99.90;;;;;;5011486;28;20180;-67
2023/04/01 03:44:09;;;;;;;7.68;2.30;;;8.30;99.90;;;;;;5013769;28;20037;-67
2023/04/01 03:46:36;;;;;;;5.88;2.03;;;8.30;99.90;;;;;;5013325;28;20489;-67
2023/04/01 03:49:12;;;;;;;7.78;2.00;;;8.30;99.90;;;;;;5030837;28;20033;-67
2023/04/01 03:51:44;;;;;;;7.20;2.05;;;8.30;99.90;;;;;;5030912;28;20049;-67
2023/04/01 03:54:16;;;;;;;5.77;1.80;;;8.30;99.90;;;;;;5029542;28;20045;-67
2023/04/01 03:56:47;;;;;;;5.78;1.98;;;8.30;99.90;;;;;;5024453;28;20498;-67
2023/04/01 03:59:17;;;;;;;8.18;2.03;;;8.30;99.90;;;;;;5027464;28;20052;-67
2023/04/01 04:01:46;;;;;;;8.93;2.10;;;8.30;99.90;;;;;;5012182;28;20043;-68
2023/04/01 04:04:17;;;;;;;5.97;1.90;;;8.30;99.90;;;;;;5023600;28;20064;-67
2023/04/01 04:06:43;;;;;;;6.80;2.25;;;8.20;99.90;;;;;;5032421;28;20132;-67
2023/04/01 04:09:16;;;;;;;10.73;2.20;;;8.30;99.90;;;;;;5029626;28;20507;-67
2023/04/01 04:11:45;;;;;;;10.00;2.00;;;8.30;99.90;;;;;;5026207;28;20033;-67
2023/04/01 04:14:13;;;;;;;3.78;1.58;;;8.30;99.90;;;;;;5025869;28;20037;-67
2023/04/01 04:16:52;;;;;;;7.18;2.15;;;8.30;99.90;;;;;;5023932;28;20401;-67
2023/04/01 04:19:24;;;;;;;4.60;1.83;;;8.20;99.90;;;;;;5025642;28;20056;-67
2023/04/01 04:21:54;;;;;;;7.97;1.95;;;8.20;99.90;;;;;;5026975;28;20017;-67
2023/04/01 04:24:21;;;;;;;12.10;1.88;;;8.20;99.90;;;;;;5028188;28;20036;-67
2023/04/01 04:26:54;;;;;;;3.10;1.58;;;8.20;99.90;;;;;;5019515;28;20425;-67
2023/04/01 04:29:28;;;;;;;5.25;1.27;;;8.20;99.90;;;;;;5026042;28;20053;-67
2023/04/01 04:31:57;;;;;;;6.80;1.92;;;8.20;99.90;;;;;;5028611;28;20410;-67
2023/04/01 04:34:29;;;;;;;6.38;1.95;;;;;;;;;;5030696;28;20056;-71
2023/04/01 04:36:57;;;;;;;6.60;1.98;;;8.20;99.90;;;;;;5023464;28;20041;-71
2023/04/01 04:39:31;;;;;;;6.05;1.70;;;8.20;99.90;;;;;;5030035;28;20036;-71
2023/04/01 04:42:00;;;;;;;9.18;1.73;;;8.20;99.90;;;;;;5030042;28;20047;-72
2023/04/01 04:44:31;;;;;;;7.15;1.90;;;8.20;99.90;;;;;;5032023;28;20029;-71
2023/04/01 04:47:01;;;;;;;8.63;1.80;;;8.20;99.90;;;;;;5028054;28;20088;-72
2023/04/01 04:49:32;;;;;;;5.55;1.65;;;8.20;99.90;;;;;;5022381;28;20433;-71
2023/04/01 04:52:02;;;;;;;6.75;1.70;;;8.20;99.90;;;;;;5012635;28;20105;-71
2023/04/01 04:54:33;;;;;;;5.90;1.65;;;8.20;99.90;;;;;;5028484;28;20029;-71
2023/04/01 04:57:04;;;;;;;5.80;1.75;;;8.20;99.90;;;;;;5029826;28;20041;-70
2023/04/01 04:59:38;;;;;;;4.70;1.73;;;8.20;99.90;;;;;;5025462;28;20551;-71
2023/04/01 05:02:06;;;;;;;6.40;2.22;;;8.10;99.90;;;;;;5029202;28;20057;-70
2023/04/01 05:04:40;;;;;;;8.60;2.00;;;8.10;99.90;;;;;;5031678;28;20725;-71
2023/04/01 05:07:08;;;;;;;6.20;2.20;;;8.10;99.90;;;;;;5029719;28;20434;-70
2023/04/01 05:09:42;;;;;;;6.65;2.10;;;8.10;99.90;;;;;;5025725;28;20030;-71
2023/04/01 05:12:12;;;;;;;6.30;1.70;;;8.10;99.90;;;;;;5025975;28;20052;-71
2023/04/01 05:14:48;;;;;;;8.85;2.08;;;8.10;99.90;;;;;;5028674;28;20041;-71
2023/04/01 05:17:15;;;;;;;10.48;2.42;;;8.20;99.90;;;;;;5027628;28;20120;-70
2023/04/01 05:19:46;;;;;;;9.18;2.10;;;8.10;99.90;;;;;;5020020;28;20515;-71
2023/04/01 05:22:15;;;;;;;6.60;2.00;;;8.10;99.90;;;;;;5018845;28;20076;-71
2023/04/01 05:24:51;;;;;;;8.65;1.83;;;8.00;99.90;;;;;;5014108;28;20034;-71
2023/04/01 05:27:19;;;;;;;8.27;1.90;;;8.10;99.90;;;;;;5019539;28;20048;-71
2023/04/01 05:29:53;;;;;;;6.50;1.83;;;8.10;99.90;;;;;;5030119;28;20026;-71
2023/04/01 05:32:21;;;;;;;10.63;1.70;;;8.10;99.90;;;;;;5028469;28;20041;-70
2023/04/01 05:34:58;;;;;;;5.82;1.80;;;8.10;99.90;;;;;;5028374;28;20040;-71
2023/04/01 05:37:24;;;;;;;5.85;1.52;;;8.10;99.90;;;;;;5017957;28;20026;-71
2023/04/01 05:39:55;;;;;;;6.10;1.80;;;8.10;99.90;;;;;;5030323;28;20026;-71
2023/04/01 05:42:21;;;;;;;6.72;1.73;;;8.10;99.90;;;;;;5026333;28;20129;-71
2023/04/01 05:44:55;;;;;;;4.55;1.70;;;8.10;99.90;;;;;;5026447;28;20037;-71
2023/04/01 05:47:23;;;;;;;4.45;1.42;;;8.10;99.90;;;;;;5020777;28;20105;-71
2023/04/01 05:49:53;;;;;;;9.15;1.67;;;8.10;99.90;;;;;;5029150;28;20026;-71
2023/04/01 05:52:22;;;;;;;7.18;1.65;;;8.10;99.90;;;;;;5022243;28;20073;-70
2023/04/01 05:54:48;;;;;;;7.05;1.80;;;8.10;99.90;;;;;;5029416;28;20056;-71
2023/04/01 05:57:21;;;;;;;9.68;2.15;;;8.10;99.90;;;;;;5025569;28;20497;-71
2023/04/01 05:59:50;;;;;;;9.70;2.00;;;8.10;99.90;;;;;;5015550;28;20306;-71
2023/04/01 06:02:24;;;;;;;8.35;2.25;;;8.10;99.90;;;;;;5023066;28;20072;-71
2023/04/01 06:04:57;;;;;;;;;;;8.10;99.90;;;;;;5027652;28;20399;-71
2023/04/01 06:07:28;;;;;;;7.65;3.63;;;8.10;99.90;;;;;;5030042;28;19911;-71
2023/04/01 06:09:55;;;;;;;5.97;2.38;;;8.10;99.90;;;;;;5010627;28;20034;-71
2023/04/01 06:12:46;;;;;;;7.35;3.00;;;8.10;99.90;;;;;;5018285;28;20593;-70
2023/04/01 06:15:27;;;;;;;7.10;3.72;;;8.10;99.90;;;;;;5028033;28;20037;-71
2023/04/01 06:18:26;;;;;;;6.00;2.75;;;8.10;99.90;;;;;;5023689;28;20057;-71
2023/04/01 06:21:10;;;;;;;7.45;2.88;;;8.10;99.90;;;;;;5008657;28;20026;-70
2023/04/01 06:24:21;;;;;;;4.95;1.63;;;8.10;99.90;;;;;;5023235;28;20021;-70
2023/04/01 06:27:35;;;;;;;8.18;3.38;;;8.10;99.90;;;;;;5009942;28;20025;-70
2023/04/01 06:30:21;;;;;;;6.88;3.20;;;8.10;99.90;;;;;;4975142;28;20092;-71
2023/04/01 06:33:07;;;;;;;9.48;2.55;;;8.20;99.90;;;;;;5029294;28;20038;-70
2023/04/01 06:35:52;;;;;;;6.72;1.90;;;8.20;99.90;;;;;;5018110;28;20026;-70
2023/04/01 06:38:33;;;;;;;5.53;1.98;;;8.30;99.90;;;;;;5013685;28;20498;-70
2023/04/01 06:41:39;;;;;;;4.53;1.63;;;8.30;99.90;;;;;;5028548;28;20033;-70
2023/04/01 06:44:34;;;;;;;6.07;1.67;;;8.30;99.90;;;;;;5027761;28;20666;-70
2023/04/01 06:47:23;;;;;;;7.10;1.95;;;8.30;99.90;;;;;;5029040;28;20430;-71
2023/04/01 06:50:12;;;;;;;5.85;2.60;;;8.40;99.90;;;;;;5025348;28;20498;-70
2023/04/01 06:52:46;;;;;;;5.72;2.35;;;8.40;99.90;;;;;;5017377;28;20048;-71
2023/04/01 06:55:43;;;;;;;9.50;2.90;;;8.40;99.90;;;;;;5018563;28;20494;-71
2023/04/01 06:58:40;;;;;;;5.60;2.35;;;8.50;99.90;;;;;;5019351;28;20050;-70
2023/04/01 07:01:22;;;;;;;5.68;1.95;;;8.50;99.90;;;;;;5022595;28;20048;-71
2023/04/01 07:04:12;;;;;;;4.78;1.70;;;8.50;99.90;;;;;;5024299;28;20025;-71
2023/04/01 07:06:57;;;;;;;6.15;2.83;;;8.60;99.90;;;;;;5028902;28;20191;-71
2023/04/01 07:09:29;;;;;;;4.85;3.13;;;;;;;;;;5023216;28;20029;-71
2023/04/01 07:12:00;;;;;;;5.35;2.45;;;8.60;99.90;;;;;;5003962;28;20278;-71
2023/04/01 07:14:31;;;;;;;7.68;1.90;;;8.70;99.90;;;;;;5007162;28;20120;-70
2023/04/01 07:17:07;;;;;;;3.38;1.85;;;8.70;99.90;;;;;;5007769;28;20120;-71
2023/04/01 07:19:56;;;;;;;6.38;1.80;;;8.70;99.90;;;;;;5019877;28;20068;-71
2023/04/01 07:22:29;;;;;;;5.32;2.35;;;8.70;99.90;;;;;;5025203;28;20031;-71
2023/04/01 07:24:57;;;;;;;;;;;8.70;99.90;;;;;;5020802;28;20709;-70
2023/04/01 07:27:23;;;;;;;4.55;2.83;;;8.80;99.90;;;;;;5019611;28;20035;-70
2023/04/01 07:30:04;;;;;;;5.53;1.90;;;8.80;99.90;;;;;;5015795;28;20128;-71
2023/04/01 07:32:48;;;;;;;6.10;2.70;;;8.80;99.90;;;;;;5019572;28;20045;-70
2023/04/01 07:35:53;;;;;;;4.07;2.30;;;8.80;99.90;;;;;;5018070;28;20128;-71
2023/04/01 07:38:48;;;;;;;5.85;1.90;;;8.90;99.90;;;;;;5021212;28;20454;-71
2023/04/01 07:41:39;;;;;;;4.22;2.05;;;8.90;99.90;;;;;;5022720;28;20029;-71
2023/04/01 07:44:33;;;;;;;6.78;1.73;;;8.90;99.90;;;;;;5022015;28;20060;-71
2023/04/01 07:47:09;;;;;;;;;;;8.90;99.90;;;;;;5022906;28;20045;-70
2023/04/01 07:49:41;;;;;;;2.83;1.20;;;8.90;99.90;;;;;;5025246;28;19920;-71
2023/04/01 07:52:10;;;;;;;4.90;1.55;;;;;;;;;;5018897;28;20033;-71
2023/04/01 07:55:23;;;;;;;2.40;1.15;;;9.10;99.90;;;;;;5020667;28;20037;-71
2023/04/01 07:57:53;;;;;;;5.75;1.70;;;9.20;99.90;;;;;;5014931;28;20569;-71
2023/04/01 08:00:30;;;;;;;6.65;1.60;;;9.20;99.90;;;;;;5015845;28;20030;-72
2023/04/01 08:03:18;;;;;;;3.75;1.23;;;9.30;99.90;;;;;;5004251;28;20570;-72
2023/04/01 08:06:05;;;;;;;4.65;1.30;;;9.30;99.90;;;;;;5017528;28;20048;-72
2023/04/01 08:08:57;;;;;;;2.58;0.80;;;9.40;99.90;;;;;;5015557;28;20045;-72
2023/04/01 08:11:48;;;;;;;3.60;1.25;;;9.30;99.90;;;;;;5016642;28;20438;-72
2023/04/01 08:14:44;;;;;;;2.85;1.15;;;9.30;99.90;;;;;;5025999;28;20561;-72
2023/04/01 08:17:28;;;;;;;2.10;1.00;;;9.40;99.90;;;;;;5023436;28;20037;-72
2023/04/01 08:20:04;;;;;;;3.50;0.95;;;9.50;99.90;;;;;;5016314;28;20026;-72
2023/04/01 08:22:48;;;;;;;2.83;1.05;;;9.50;99.90;;;;;;5022678;28;20036;-73
2023/04/01 08:25:24;;;;;;;3.80;0.80;;;9.60;99.90;;;;;;5025457;28;22136;-72
2023/04/01 08:28:04;;;;;;;4.07;1.20;;;9.60;99.90;;;;;;5020365;28;20052;-72
2023/04/01 08:30:57;;;;;;;2.47;1.13;;;9.60;99.90;;;;;;5021433;28;20021;-72
2023/04/01 08:33:29;;;;;;;3.03;0.90;;;9.50;99.90;;;;;;4988030;28;20036;-72
2023/04/01 08:36:13;;;;;;;1.80;0.90;;;9.50;99.90;;;;;;5029191;28;20462;-73
2023/04/01 08:38:52;;;;;;;2.15;0.80;;;9.50;99.90;;;;;;5026301;28;20025;-72
2023/04/01 08:41:40;;;;;;;2.58;0.90;;;9.60;99.90;;;;;;5025448;28;20477;-73
2023/04/01 08:44:27;;;;;;;3.42;1.35;;;9.60;99.90;;;;;;5028142;28;20034;-72
2023/04/01 08:47:15;;;;;;;3.60;1.73;;;9.60;99.90;;;;;;5021150;28;20496;-73
2023/04/01 08:50:03;;;;;;;5.80;2.30;;;9.70;99.90;;;;;;5018087;28;20029;-72
2023/04/01 08:52:40;;;;;;;2.03;1.33;;;9.80;99.90;;;;;;5021308;28;20429;-73
2023/04/01 08:55:24;;;;;;;3.45;1.30;;;9.90;99.90;;;;;;5026740;28;20029;-72
2023/04/01 08:58:14;;;;;;;3.75;0.90;;;9.80;99.90;;;;;;5025204;28;20062;-72
2023/04/01 09:00:46;;;;;;;3.53;1.38;;;9.80;99.90;;;;;;5024176;28;20156;-72
2023/04/01 09:03:34;;;;;;;3.30;1.25;;;10.00;99.90;;;;;;5021165;28;20257;-72
2023/04/01 09:06:26;;;;;;;2.55;1.30;;;10.00;99.90;;;;;;5029457;28;20029;-72
2023/04/01 09:09:28;;;;;;;2.53;1.95;;;10.10;99.90;;;;;;5020465;28;20060;-72
2023/04/01 09:12:46;;;;;;;3.00;0.90;;;10.20;99.90;;;;;;5016596;28;20037;-72
2023/04/01 09:15:36;;;;;;;3.03;1.20;;;10.20;99.90;;;;;;5000664;28;20037;-72
2023/04/01 09:18:14;;;;;;;3.05;0.90;;;10.20;99.90;;;;;;5025761;28;20025;-72
2023/04/01 09:20:50;;;;;;;3.17;0.90;;;10.30;99.90;;;;;;5024318;28;20117;-72
2023/04/01 09:23:25;;;;;;;3.15;1.48;;;10.30;99.90;;;;;;5022757;28;20080;-72
2023/04/01 09:26:18;;;;;;;3.85;2.05;;;10.40;99.90;;;;;;5013098;28;20670;-73
2023/04/01 09:28:55;;;;;;;3.83;2.05;;;10.40;99.90;;;;;;5021611;28;21128;-72
2023/04/01 09:31:32;;;;;;;4.80;1.25;;;10.40;99.90;;;;;;5024095;28;20040;-73
2023/04/01 09:34:17;;;;;;;5.05;1.58;;;;;;;;;;5020016;28;20437;-73
2023/04/01 09:37:07;;;;;;;2.53;1.13;;;10.30;99.90;;;;;;5014882;28;20022;-73
2023/04/01 09:39:42;;;;;;;2.40;1.75;;;10.40;99.90;;;;;;5023998;28;20501;-72
2023/04/01 09:42:43;;;;;;;2.28;1.13;;;10.40;99.90;;;;;;5023094;28;20037;-73
2023/04/01 09:45:41;;;;;;;1.75;1.48;;;10.40;99.90;;;;;;5027304;28;20516;-73
2023/04/01 09:48:44;;;;;;;1.80;1.15;;;10.30;99.90;;;;;;5026586;28;20044;-73
2023/04/01 09:51:26;;;;;;;2.28;0.95;;;10.40;99.90;;;;;;5026869;28;20117;-73
2023/04/01 09:54:08;;;;;;;2.88;1.30;;;10.40;99.90;;;;;;5028994;28;20038;-72
2023/04/01 09:56:36;;;;;;;4.50;1.75;;;10.40;99.90;;;;;;5028241;28;20359;-72
2023/04/01 09:59:49;;;;;;;2.65;1.52;;;10.40;99.90;;;;;;5017734;28;20058;-72
2023/04/01 10:02:54;;;;;;;3.58;2.38;;;10.40;99.90;;;;;;5018577;28;20080;-72
2023/04/01 10:06:01;;;;;;;3.85;1.85;;;10.30;99.90;;;;;;5021477;28;20685;-72
2023/04/01 10:08:41;;;;;;;3.92;2.10;;;10.40;99.90;;;;;;5020025;28;20026;-73
2023/04/01 10:11:32;;;;;;;3.45;2.47;;;10.40;99.90;;;;;;5023170;28;20060;-72
2023/04/01 10:14:35;;;;;;;4.82;2.10;;;10.50;99.90;;;;;;5026574;28;20037;-72
2023/04/01 10:17:20;;;;;;;3.47;1.40;;;10.50;99.90;;;;;;5027037;28;20017;-72
2023/04/01 10:20:07;;;;;;;2.60;1.27;;;;;;;;;;5019766;28;20033;-71
2023/04/01 10:23:03;;;;;;;2.45;1.30;;;;;;;;;;5016144;28;20033;-73
2023/04/01 10:25:43;;;;;;;1.08;0.90;;;;;;;;;;5019133;28;20048;-73
2023/04/01 10:28:20;;;;;;;3.00;0.80;;;10.70;99.90;;;;;;5019244;28;20049;-73
2023/04/01 10:31:20;;;;;;;2.13;1.10;;;10.70;99.90;;;;;;5008227;28;20052;-72
2023/04/01 10:34:24;;;;;;;2.03;1.10;;;10.80;99.90;;;;;;5020841;28;20021;-73
2023/04/01 10:36:55;;;;;;;2.10;1.50;;;10.80;99.90;;;;;;5018502;28;20494;-73
2023/04/01 10:40:00;;;;;;;1.20;0.65;;;11.00;99.90;;;;;;5021118;28;20046;-73
2023/04/01 10:42:57;;;;;;;1.20;0.90;;;11.20;99.90;;;;;;5023833;28;20192;-73
2023/04/01 10:46:02;;;;;;;2.17;1.00;;;11.30;99.90;;;;;;5014164;28;20078;-73
2023/04/01 10:48:53;;;;;;;2.90;2.10;;;11.60;99.90;;;;;;4969015;28;20136;-73
2023/04/01 10:51:38;;;;;;;3.55;1.70;;;11.70;99.90;;;;;;5023522;28;20029;-73
2023/04/01 10:54:28;;;;;;;1.67;0.70;;;11.70;99.90;;;;;;5021821;28;20494;-73
2023/04/01 10:57:32;;;;;;;1.85;0.60;;;11.70;99.90;;;;;;5024461;28;20041;-73
2023/04/01 11:00:22;;;;;;;2.03;1.17;;;11.50;99.90;;;;;;5016315;28;20069;-73
2023/04/01 11:03:00;;;;;;;4.10;1.50;;;11.60;99.90;;;;;;5023434;28;20462;-73
2023/04/01 11:05:46;;;;;;;2.60;1.08;;;;;;;;;;5024888;28;20029;-73
2023/04/01 11:08:33;;;;;;;4.63;1.55;;;;;;;;;;5020510;28;20029;-73
2023/04/01 11:11:17;;;;;;;0.70;0.70;;;;;;;;;;5025313;28;20078;-73
2023/04/01 11:13:47;;;;;;;;;;;;;;;;;;5025057;28;20021;-73
2023/04/01 11:16:22;;;;;;;2.13;1.23;;;12.10;99.90;;;;;;5025376;28;20447;-74
2023/04/01 11:18:53;;;;;;;1.10;0.60;;;;;;;;;;5023834;28;20026;-73
2023/04/01 11:21:59;;;;;;;5.32;1.30;;;;;;;;;;5024455;28;20033;-72
2023/04/01 11:24:29;;;;;;;2.17;0.70;;;;;;;;;;4960616;28;20078;-73
2023/04/01 11:27:05;;;;;;;1.65;1.33;;;;;;;;;;4962465;28;20590;-73
2023/04/01 11:29:38;;;;;;;2.05;1.10;;;;;;;;;;4991385;28;20046;-73
2023/04/01 11:32:07;;;;;;;;;;;;;;;;;;5018645;28;20128;-73
2023/04/01 11:34:41;;;;;;;4.28;0.93;;;;;;;;;;5027226;28;20269;-73
2023/04/01 11:37:23;;;;;;;1.92;1.60;;;;;;;;;;5021424;28;20029;-74
2023/04/01 11:40:10;;;;;;;0.63;0.50;;;11.60;99.90;;;;;;5017286;28;20076;-74
2023/04/01 11:42:49;;;;;;;1.98;1.10;;;11.60;99.90;;;;;;5013644;28;20045;-74
2023/04/01 11:45:33;;;;;;;2.25;2.05;;;11.60;99.90;;;;;;5018020;28;20026;-74
2023/04/01 11:48:17;;;;;;;1.60;1.50;;;11.60;99.90;;;;;;5015505;28;20029;-73
2023/04/01 11:51:02;;;;;;;0.85;0.50;;;11.50;99.90;;;;;;5011932;28;20040;-74
2023/04/01 11:53:49;;;;;;;1.60;0.40;;;11.50;99.90;;;;;;5016722;28;20029;-74
2023/04/01 11:56:55;;;;;;;1.17;0.50;;;11.40;99.90;;;;;;5013607;28;20405;-74
2023/04/01 11:59:44;;;;;;;1.75;1.20;;;11.30;99.90;;;;;;5026003;28;20029;-74
2023/04/01 12:02:25;;;;;;;0.57;0.50;;;11.30;99.90;;;;;;5015823;28;20026;-74
2023/04/01 12:05:06;;;;;;;1.55;0.70;;;11.20;99.90;;;;;;5023389;28;20025;-75
2023/04/01 12:07:54;;;;;;;1.15;0.70;;;11.30;99.90;;;;;;4315823;28;10000915;-72
2023/04/01 12:10:46;;;;;;;2.17;1.00;;;11.30;99.90;;;;;;5016397;28;20131;-73
2023/04/01 12:13:54;;;;;;;8.48;4.78;;;11.30;99.90;;;;;;5008669;28;20124;-74
2023/04/01 12:16:39;;;;;;;2.67;1.80;;;11.30;99.90;;;;;;4992861;28;20562;-73
2023/04/01 12:19:16;;;;;;;1.63;1.30;;;11.40;99.90;;;;;;5010586;28;20633;-74
2023/04/01 12:22:14;;;;;;;7.03;3.60;;;11.40;99.90;;;;;;5007768;28;20570;-74
2023/04/01 12:25:10;;;;;;;7.13;4.35;;;11.40;99.90;;;;;;5005931;28;20034;-74
2023/04/01 12:28:04;;;;;;;4.72;2.30;;;11.30;99.90;;;;;;4989279;28;20056;-73
2023/04/01 12:30:56;;;;;;;2.40;1.50;;;11.30;99.90;;;;;;5006436;28;20041;-74
2023/04/01 12:33:21;;;;;;;0.60;0.60;;;11.40;99.90;;;;;;5011241;28;20045;-75
2023/04/01 12:35:59;;;;;;;1.60;0.70;;;11.40;99.90;;;;;;5008882;28;20029;-75
2023/04/01 12:38:59;;;;;;;1.92;0.98;;;11.30;99.90;;;;;;5009124;28;20091;-75
2023/04/01 12:41:39;;;;;;;1.35;0.70;;;11.20;99.90;;;;;;5022129;28;20083;-75
2023/04/01 12:44:16;;;;;;;1.35;0.73;;;11.20;99.90;;;;;;5020738;28;20510;-73
2023/04/01 12:46:51;;;;;;;0.70;0.70;;;;;;;;;;5023695;28;20113;-74
2023/04/01 12:49:23;;;;;;;0.80;0.50;;;11.10;99.90;;;;;;5019501;28;20033;-74
2023/04/01 12:52:00;;;;;;;2.70;1.80;;;11.10;99.90;;;;;;5023001;28;20179;-74
2023/04/01 12:54:35;;;;;;;3.00;1.80;;;11.10;99.90;;;;;;5021720;28;20044;-74
2023/04/01 12:57:28;;;;;;;1.80;0.90;;;11.10;99.90;;;;;;5018771;28;20037;-74
2023/04/01 13:00:43;;;;;;;1.77;1.17;;;11.20;99.90;;;;;;5020877;28;20490;-74
2023/04/01 13:03:33;;;;;;;6.15;3.40;;;11.20;99.90;;;;;;4967778;28;20027;-73
2023/04/01 13:06:07;;;;;;;5.15;2.63;;;11.20;99.90;;;;;;5022321;28;20040;-72
2023/04/01 13:08:54;;;;;;;3.80;1.85;;;11.10;99.90;;;;;;5018945;28;20112;-72
2023/04/01 13:11:20;;;;;;;1.95;1.83;;;11.20;99.90;;;;;;5016921;28;20052;-73
2023/04/01 13:13:56;;;;;;;1.30;1.00;;;11.20;99.90;;;;;;5017808;28;20041;-73
2023/04/01 13:16:30;;;;;;;1.77;1.50;;;11.10;99.90;;;;;;5023075;28;20033;-73
2023/04/01 13:18:59;;;;;;;4.15;2.95;;;11.10;99.90;;;;;;5017266;28;20039;-74
2023/04/01 13:21:46;;;;;;;1.90;1.75;;;11.10;99.90;;;;;;5016681;28;20025;-74
2023/04/01 13:24:30;;;;;;;3.65;2.58;;;11.00;99.90;;;;;;5017380;28;20040;-75
2023/04/01 13:27:14;;;;;;;2.20;2.00;;;11.00;99.90;;;;;;5023416;28;20033;-73
2023/04/01 13:29:55;;;;;;;2.22;1.70;;;10.90;99.90;;;;;;5019013;28;20112;-72
2023/04/01 13:32:37;;;;;;;1.50;1.27;;;10.90;99.90;;;;;;5022647;28;20407;-72
2023/04/01 13:35:24;;;;;;;2.53;1.08;;;10.90;99.90;;;;;;5018945;28;20051;-72
2023/04/01 13:38:28;;;;;;;1.40;1.10;;;10.90;99.90;;;;;;5017883;28;20061;-72
2023/04/01 13:40:56;;;;;;;2.55;1.00;;;10.90;99.90;;;;;;5014356;28;20595;-72
2023/04/01 13:43:32;;;;;;;1.80;0.95;;;11.00;99.90;;;;;;5017633;28;20061;-73
2023/04/01 13:46:01;;;;;;;1.23;0.75;;;11.00;99.90;;;;;;5020600;28;20029;-73
2023/04/01 13:48:30;;;;;;;0.70;0.70;;;11.00;99.90;;;;;;5025201;28;20029;-73
2023/04/01 13:51:08;;;;;;;1.90;1.20;;;11.00;99.90;;;;;;5012020;28;20036;-72
2023/04/01 13:53:36;;;;;;;1.15;0.65;;;11.00;99.90;;;;;;5012143;28;20501;-72
2023/04/01 13:56:32;;;;;;;2.50;1.20;;;11.00;99.90;;;;;;5018760;28;20416;-72
2023/04/01 13:59:17;;;;;;;1.58;1.25;;;;;;;;;;5016908;28;20334;-72
2023/04/01 14:01:48;;;;;;;2.30;1.23;;;;;;;;;;5018196;28;20033;-73
2023/04/01 14:04:31;;;;;;;1.45;1.35;;;11.20;99.90;;;;;;5019463;28;20076;-73
2023/04/01 14:07:08;;;;;;;1.45;0.70;;;11.10;99.90;;;;;;5019318;28;20420;-74
2023/04/01 14:09:42;;;;;;;1.17;0.70;;;11.10;99.90;;;;;;5013170;28;20041;-72
2023/04/01 14:12:40;;;;;;;;;;;11.10;99.90;;;;;;5020616;28;20029;-72
2023/04/01 14:15:43;;;;;;;5.10;0.93;;;11.20;99.90;;;;;;4996909;28;19916;-72
2023/04/01 14:18:33;;;;;;;0.55;0.50;;;11.20;99.90;;;;;;5019701;28;20037;-74
2023/04/01 14:21:18;;;;;;;1.58;0.80;;;11.20;99.90;;;;;;5012183;28;20044;-74
2023/04/01 14:24:07;;;;;;;1.08;0.80;;;11.20;99.90;;;;;;5017756;28;20040;-73
2023/04/01 14:26:51;;;;;;;2.88;0.80;;;11.30;99.90;;;;;;4980588;28;20778;-73
2023/04/01 14:29:35;;;;;;;1.70;0.80;;;11.20;99.90;;;;;;5016065;28;20033;-73
2023/04/01 14:32:32;;;;;;;1.60;0.60;;;11.20;99.90;;;;;;5015563;28;20021;-72
2023/04/01 14:35:36;;;;;;;2.17;1.67;;;11.10;99.90;;;;;;5015123;28;20164;-72
2023/04/01 14:38:25;;;;;;;3.03;1.70;;;11.00;99.90;;;;;;5019399;28;20053;-71
2023/04/01 14:40:51;;;;;;;1.95;1.75;;;;;;;;;;5015207;28;20026;-72
2023/04/01 14:43:20;;;;;;;3.05;1.60;;;;;;;;;;5012630;28;20058;-72
2023/04/01 14:45:58;;;;;;;5.97;1.20;;;;;;;;;;5020130;28;20029;-72
2023/04/01 14:48:29;;;;;;;1.42;1.15;;;;;;;;;;5016764;28;20507;-72
2023/04/01 14:50:56;;;;;;;1.15;1.00;;;;;;;;;;5017780;28;20627;-72
2023/04/01 14:53:25;;;;;;;2.00;0.90;;;;;;;;;;5016414;28;20481;-72
2023/04/01 14:55:53;;;;;;;1.58;0.90;;;;;;;;;;5023575;28;20230;-72